createdAt,value
2018-02-27T00:02:12.433Z,-7.10
2018-02-27T00:04:40.744Z,-7.20
2018-02-27T00:07:08.303Z,-7.20
2018-02-27T00:09:35.905Z,-7.00
2018-02-27T00:12:04.224Z,-7.00
2018-02-27T00:14:31.814Z,-7.20
2018-02-27T00:16:59.360Z,-7.10
2018-02-27T00:19:27.004Z,-7.30
2018-02-27T00:21:54.568Z,-7.10
2018-02-27T00:24:22.113Z,-7.20
2018-02-27T00:26:49.877Z,-7.20
2018-02-27T00:29:17.424Z,-7.00
2018-02-27T00:31:45.010Z,-7.30
2018-02-27T00:34:12.638Z,-7.30
2018-02-27T00:36:41.010Z,-7.10
2018-02-27T00:39:08.847Z,-7.20
2018-02-27T00:41:36.436Z,-7.30
2018-02-27T00:44:04.761Z,-7.20
2018-02-27T00:46:32.414Z,-7.20
2018-02-27T00:48:59.972Z,-7.20
2018-02-27T00:51:27.520Z,-7.40
2018-02-27T00:53:55.409Z,-7.30
2018-02-27T00:56:22.956Z,-7.40
2018-02-27T00:58:50.643Z,-7.40
2018-02-27T01:01:18.200Z,-7.20
2018-02-27T01:03:46.018Z,-7.20
2018-02-27T01:06:14.356Z,-7.30
2018-02-27T01:11:15.801Z,-7.40
2018-02-27T01:13:43.333Z,-7.40
2018-02-27T01:16:10.926Z,-7.50
2018-02-27T01:18:38.521Z,-7.30
2018-02-27T01:21:06.113Z,-7.40
2018-02-27T01:23:33.868Z,-7.40
2018-02-27T01:26:02.193Z,-7.50
2018-02-27T01:28:29.789Z,-7.50
2018-02-27T01:30:58.100Z,-7.50
2018-02-27T01:33:25.681Z,-7.50
2018-02-27T01:35:53.356Z,-7.40
2018-02-27T01:38:20.974Z,-7.50
2018-02-27T01:40:48.526Z,-7.60
2018-02-27T01:43:16.074Z,-7.50
2018-02-27T01:45:43.667Z,-7.70
2018-02-27T01:48:11.226Z,-7.60
2018-02-27T01:50:38.881Z,-7.70
2018-02-27T01:53:06.445Z,-7.60
2018-02-27T01:55:34.045Z,-7.60
2018-02-27T01:58:01.615Z,-7.60
2018-02-27T02:00:29.213Z,-7.70
2018-02-27T02:02:56.760Z,-7.70
2018-02-27T02:05:24.304Z,-7.70
2018-02-27T02:07:52.684Z,-7.90
2018-02-27T02:10:20.298Z,-7.90
2018-02-27T02:12:47.915Z,-7.80
2018-02-27T02:15:16.233Z,-8.00
2018-02-27T02:17:43.836Z,-7.80
2018-02-27T02:20:12.165Z,-8.00
2018-02-27T02:22:39.754Z,-7.80
2018-02-27T02:25:07.307Z,-7.80
2018-02-27T02:27:34.905Z,-7.90
2018-02-27T02:30:03.244Z,-7.90
2018-02-27T02:32:30.795Z,-8.00
2018-02-27T02:34:58.396Z,-7.80
2018-02-27T02:37:25.950Z,-8.00
2018-02-27T02:39:54.338Z,-8.00
2018-02-27T02:42:22.794Z,-7.90
2018-02-27T02:44:51.561Z,-7.80
2018-02-27T02:47:19.108Z,-8.10
2018-02-27T02:49:46.652Z,-8.00
2018-02-27T02:52:14.249Z,-8.10
2018-02-27T02:54:41.806Z,-7.90
2018-02-27T02:57:09.427Z,-8.10
2018-02-27T02:59:36.979Z,-8.10
2018-02-27T03:02:04.512Z,-8.10
2018-02-27T03:04:32.093Z,-8.20
2018-02-27T03:06:59.642Z,-8.10
2018-02-27T03:09:27.235Z,-8.20
2018-02-27T03:11:54.776Z,-8.30
2018-02-27T03:14:22.328Z,-8.20
2018-02-27T03:16:49.920Z,-8.30
2018-02-27T03:19:17.470Z,-8.20
2018-02-27T03:21:45.897Z,-8.20
2018-02-27T03:24:13.560Z,-8.20
2018-02-27T03:26:41.151Z,-8.20
2018-02-27T03:29:08.914Z,-8.20
2018-02-27T03:31:37.250Z,-8.30
2018-02-27T03:34:04.837Z,-8.30
2018-02-27T03:36:33.317Z,-8.40
2018-02-27T03:39:01.631Z,-8.30
2018-02-27T03:41:29.276Z,-8.30
2018-02-27T03:43:57.093Z,-8.50
2018-02-27T03:46:24.684Z,-8.50
2018-02-27T03:48:52.285Z,-8.30
2018-02-27T03:51:19.839Z,-8.50
2018-02-27T03:53:47.376Z,-8.50
2018-02-27T03:56:15.052Z,-8.60
2018-02-27T03:58:42.740Z,-8.60
2018-02-27T04:01:10.555Z,-8.50
2018-02-27T04:03:38.993Z,-8.60
2018-02-27T04:06:06.582Z,-8.50
2018-02-27T04:08:34.141Z,-8.50
2018-02-27T04:11:02.519Z,-8.50
2018-02-27T04:13:30.100Z,-8.60
2018-02-27T04:15:58.113Z,-8.50
2018-02-27T04:18:25.670Z,-8.40
2018-02-27T04:20:53.895Z,-8.50
2018-02-27T04:23:22.244Z,-8.50
2018-02-27T04:25:49.800Z,-8.60
2018-02-27T04:28:17.385Z,-8.70
2018-02-27T04:30:45.937Z,-8.70
2018-02-27T04:33:13.540Z,-8.60
2018-02-27T04:35:41.103Z,-8.70
2018-02-27T04:38:08.736Z,-8.60
2018-02-27T04:40:36.288Z,-8.70
2018-02-27T04:43:03.842Z,-8.70
2018-02-27T04:45:31.434Z,-8.80
2018-02-27T04:47:58.992Z,-8.70
2018-02-27T04:50:27.340Z,-8.80
2018-02-27T04:52:55.073Z,-8.70
2018-02-27T04:55:22.962Z,-8.80
2018-02-27T04:57:50.504Z,-8.70
2018-02-27T05:00:18.060Z,-8.80
2018-02-27T05:02:45.645Z,-8.80
2018-02-27T05:05:14.714Z,-8.70
2018-02-27T05:07:42.550Z,-8.90
2018-02-27T05:10:10.100Z,-8.90
2018-02-27T05:12:37.687Z,-8.90
2018-02-27T05:15:05.254Z,-8.70
2018-02-27T05:17:32.837Z,-8.90
2018-02-27T05:20:00.399Z,-8.90
2018-02-27T05:22:28.101Z,-8.90
2018-02-27T05:24:57.083Z,-8.80
2018-02-27T05:27:24.634Z,-8.90
2018-02-27T05:29:53.164Z,-8.80
2018-02-27T05:32:20.733Z,-8.90
2018-02-27T05:34:48.337Z,-8.90
2018-02-27T05:37:15.890Z,-9.00
2018-02-27T05:39:43.936Z,-8.90
2018-02-27T05:42:11.486Z,-9.00
2018-02-27T05:44:39.041Z,-9.10
2018-02-27T05:47:06.629Z,-8.90
2018-02-27T05:49:35.672Z,-9.20
2018-02-27T05:52:03.252Z,-9.10
2018-02-27T05:54:30.830Z,-9.00
2018-02-27T05:56:58.442Z,-8.90
2018-02-27T05:59:25.981Z,-9.00
2018-02-27T06:01:53.726Z,-9.00
2018-02-27T06:04:21.321Z,-9.10
2018-02-27T06:06:49.073Z,-9.20
2018-02-27T06:09:17.424Z,-9.10
2018-02-27T06:11:44.965Z,-9.20
2018-02-27T06:14:12.541Z,-9.10
2018-02-27T06:16:40.188Z,-9.20
2018-02-27T06:19:07.753Z,-9.00
2018-02-27T06:21:35.313Z,-9.00
2018-02-27T06:24:02.949Z,-9.20
2018-02-27T06:26:30.489Z,-9.20
2018-02-27T06:28:58.032Z,-9.20
2018-02-27T06:31:26.380Z,-8.90
2018-02-27T06:33:53.933Z,-9.20
2018-02-27T06:36:21.540Z,-9.10
2018-02-27T06:38:49.088Z,-9.00
2018-02-27T06:41:17.565Z,-8.90
2018-02-27T06:43:45.957Z,-8.80
2018-02-27T06:46:13.534Z,-9.10
2018-02-27T06:48:41.110Z,-8.80
2018-02-27T06:51:08.799Z,-8.90
2018-02-27T06:53:36.344Z,-8.90
2018-02-27T06:56:03.968Z,-8.90
2018-02-27T06:58:32.309Z,-8.70
2018-02-27T07:00:59.860Z,-8.70
2018-02-27T07:03:27.465Z,-8.80
2018-02-27T07:05:55.011Z,-8.80
2018-02-27T07:08:23.392Z,-8.80
2018-02-27T07:10:50.933Z,-8.70
2018-02-27T07:13:19.278Z,-8.50
2018-02-27T07:15:46.822Z,-8.70
2018-02-27T07:18:14.368Z,-8.50
2018-02-27T07:20:41.958Z,-8.50
2018-02-27T07:23:09.504Z,-8.50
2018-02-27T07:25:37.089Z,-8.20
2018-02-27T07:28:04.773Z,-8.30
2018-02-27T07:30:33.412Z,-8.10
2018-02-27T07:33:00.958Z,-8.30
2018-02-27T07:35:28.518Z,-8.10
2018-02-27T07:37:56.107Z,-8.00
2018-02-27T07:40:23.677Z,-7.90
2018-02-27T07:42:51.378Z,-7.90
2018-02-27T07:45:18.917Z,-7.90
2018-02-27T07:47:46.516Z,-7.70
2018-02-27T07:50:14.078Z,-7.80
2018-02-27T07:52:41.658Z,-7.80
2018-02-27T07:55:09.209Z,-7.80
2018-02-27T07:57:36.820Z,-7.60
2018-02-27T08:00:04.374Z,-7.60
2018-02-27T08:02:33.019Z,-7.40
2018-02-27T08:05:00.558Z,-7.40
2018-02-27T08:07:28.134Z,-7.10
2018-02-27T08:09:55.724Z,-7.00
2018-02-27T08:12:23.425Z,-7.00
2018-02-27T08:14:51.006Z,-6.90
2018-02-27T08:17:18.633Z,-6.90
2018-02-27T08:19:46.249Z,-6.80
2018-02-27T08:22:13.803Z,-6.50
2018-02-27T08:24:41.349Z,-6.50
2018-02-27T08:27:08.958Z,-6.50
2018-02-27T08:29:36.535Z,-6.50
2018-02-27T08:32:04.121Z,-6.30
2018-02-27T08:34:31.681Z,-6.00
2018-02-27T08:36:59.262Z,-6.10
2018-02-27T08:39:26.812Z,-5.80
2018-02-27T08:41:54.425Z,-5.90
2018-02-27T08:44:22.743Z,-5.60
2018-02-27T08:46:50.282Z,-5.80
2018-02-27T08:49:17.870Z,-5.70
2018-02-27T08:51:45.414Z,-5.60
2018-02-27T08:54:13.013Z,-5.60
2018-02-27T08:56:40.601Z,-5.90
2018-02-27T08:59:09.032Z,-5.40
2018-02-27T09:01:36.672Z,-5.40
2018-02-27T09:04:04.259Z,-5.30
2018-02-27T09:06:31.805Z,-5.50
2018-02-27T09:08:59.681Z,-5.60
2018-02-27T09:11:27.396Z,-5.10
2018-02-27T09:13:54.965Z,-5.00
2018-02-27T09:16:22.558Z,-4.90
2018-02-27T09:18:50.377Z,-4.80
2018-02-27T09:21:18.184Z,-4.70
2018-02-27T09:23:45.744Z,-4.70
2018-02-27T09:26:13.336Z,-4.60
2018-02-27T09:28:40.893Z,-4.50
2018-02-27T09:33:42.318Z,-4.40
2018-02-27T09:36:09.920Z,-4.30
2018-02-27T09:38:37.486Z,-4.20
2018-02-27T09:41:05.043Z,-4.10
2018-02-27T09:43:33.415Z,-3.90
2018-02-27T09:46:01.003Z,-3.90
2018-02-27T09:48:28.622Z,-3.90
2018-02-27T09:50:56.188Z,-3.70
2018-02-27T09:53:23.812Z,-3.70
2018-02-27T09:55:51.368Z,-3.60
2018-02-27T09:58:20.072Z,-3.60
2018-02-27T10:00:47.612Z,-3.70
2018-02-27T10:03:15.161Z,-3.60
2018-02-27T10:05:42.793Z,-3.60
2018-02-27T10:08:10.380Z,-3.50
2018-02-27T10:10:37.967Z,-3.40
2018-02-27T10:13:05.493Z,-3.30
2018-02-27T10:15:33.113Z,-3.20
2018-02-27T10:18:00.685Z,-3.10
2018-02-27T10:20:28.305Z,-3.10
2018-02-27T10:22:55.853Z,-3.10
2018-02-27T10:25:23.752Z,-3.00
2018-02-27T10:27:51.297Z,-3.00
2018-02-27T10:30:18.849Z,-3.00
2018-02-27T10:32:46.448Z,-3.00
2018-02-27T10:35:14.006Z,-2.90
2018-02-27T10:37:41.584Z,-2.90
2018-02-27T10:40:09.131Z,-2.90
2018-02-27T10:42:37.493Z,-2.90
2018-02-27T10:45:05.046Z,-2.90
2018-02-27T10:47:32.637Z,-2.90
2018-02-27T10:50:00.401Z,-2.90
2018-02-27T10:52:28.750Z,-3.00
2018-02-27T10:54:56.335Z,-3.00
2018-02-27T10:57:23.872Z,-2.90
2018-02-27T10:59:51.463Z,-3.00
2018-02-27T11:02:19.890Z,-2.90
2018-02-27T11:04:47.494Z,-2.90
2018-02-27T11:07:15.102Z,-2.90
2018-02-27T11:09:43.692Z,-2.80
2018-02-27T11:12:11.245Z,-2.80
2018-02-27T11:14:38.826Z,-2.80
2018-02-27T11:17:06.431Z,-2.80
2018-02-27T11:19:33.981Z,-2.80
2018-02-27T11:22:02.346Z,-2.80
2018-02-27T11:24:29.914Z,-2.80
2018-02-27T11:26:58.302Z,-2.90
2018-02-27T11:29:25.856Z,-2.90
2018-02-27T11:31:54.221Z,-2.90
2018-02-27T11:34:21.780Z,-2.90
2018-02-27T11:36:49.329Z,-2.90
2018-02-27T11:39:17.123Z,-3.00
2018-02-27T11:41:45.462Z,-3.10
2018-02-27T11:44:13.052Z,-3.20
2018-02-27T11:46:41.358Z,-3.20
2018-02-27T11:49:08.941Z,-3.30
2018-02-27T11:51:36.618Z,-3.30
2018-02-27T11:54:04.198Z,-3.30
2018-02-27T11:56:31.741Z,-3.30
2018-02-27T11:58:59.365Z,-3.40
2018-02-27T12:01:26.963Z,-3.40
2018-02-27T12:03:54.475Z,-3.50
2018-02-27T12:06:22.355Z,-3.50
2018-02-27T12:08:49.936Z,-3.50
2018-02-27T12:11:17.532Z,-3.60
2018-02-27T12:13:45.882Z,-3.70
2018-02-27T12:16:13.477Z,-3.70
2018-02-27T12:18:41.813Z,-3.70
2018-02-27T12:21:09.403Z,-3.70
2018-02-27T12:23:37.701Z,-3.80
2018-02-27T12:26:06.002Z,-3.80
2018-02-27T12:28:33.578Z,-3.80
2018-02-27T12:31:01.145Z,-3.90
2018-02-27T12:33:28.714Z,-3.90
2018-02-27T12:35:56.405Z,-4.00
2018-02-27T12:38:24.749Z,-4.10
2018-02-27T12:40:52.295Z,-4.10
2018-02-27T12:43:20.091Z,-4.10
2018-02-27T12:45:47.642Z,-4.10
2018-02-27T12:48:15.233Z,-4.20
2018-02-27T12:50:42.785Z,-4.20
2018-02-27T12:53:11.096Z,-4.20
2018-02-27T12:55:38.686Z,-4.20
2018-02-27T12:58:06.214Z,-4.20
2018-02-27T13:00:33.768Z,-4.20
2018-02-27T13:03:01.306Z,-4.20
2018-02-27T13:05:29.653Z,-4.20
2018-02-27T13:07:57.223Z,-4.20
2018-02-27T13:10:24.824Z,-4.20
2018-02-27T13:12:52.375Z,-4.20
2018-02-27T13:15:19.961Z,-4.20
2018-02-27T13:17:47.515Z,-4.20
2018-02-27T13:20:15.057Z,-4.10
2018-02-27T13:22:42.647Z,-4.10
2018-02-27T13:25:10.198Z,-4.10
2018-02-27T13:27:37.790Z,-4.10
2018-02-27T13:30:05.828Z,-4.10
2018-02-27T13:32:33.414Z,-4.10
2018-02-27T13:35:01.047Z,-4.00
2018-02-27T13:37:28.652Z,-4.00
2018-02-27T13:39:56.238Z,-4.00
2018-02-27T13:42:24.559Z,-4.00
2018-02-27T13:44:52.156Z,-4.00
2018-02-27T13:47:19.745Z,-3.90
2018-02-27T13:49:47.293Z,-3.90
2018-02-27T13:52:14.889Z,-3.80
2018-02-27T13:54:42.440Z,-3.80
2018-02-27T13:57:10.034Z,-3.80
2018-02-27T13:59:37.626Z,-3.80
2018-02-27T14:02:05.393Z,-3.70
2018-02-27T14:04:34.054Z,-3.70
2018-02-27T14:07:01.670Z,-3.70
2018-02-27T14:09:29.317Z,-3.70
2018-02-27T14:11:56.919Z,-3.70
2018-02-27T14:14:24.470Z,-3.70
2018-02-27T14:16:52.220Z,-3.70
2018-02-27T14:19:19.780Z,-3.70
2018-02-27T14:21:47.360Z,-3.60
2018-02-27T14:24:14.901Z,-3.60
2018-02-27T14:26:42.495Z,-3.50
2018-02-27T14:29:10.080Z,-3.60
2018-02-27T14:31:38.420Z,-3.60
2018-02-27T14:34:05.959Z,-3.60
2018-02-27T14:36:33.526Z,-3.60
2018-02-27T14:39:01.132Z,-3.50
2018-02-27T14:41:29.433Z,-3.60
2018-02-27T14:43:57.017Z,-3.60
2018-02-27T14:46:24.565Z,-3.50
2018-02-27T14:48:52.140Z,-3.50
2018-02-27T14:51:20.508Z,-3.50
2018-02-27T14:53:48.088Z,-3.50
2018-02-27T14:56:15.636Z,-3.60
2018-02-27T14:58:43.185Z,-3.60
2018-02-27T15:01:10.774Z,-3.60
2018-02-27T15:03:38.324Z,-3.60
2018-02-27T15:06:05.906Z,-3.60
2018-02-27T15:08:34.965Z,-3.50
2018-02-27T15:11:02.505Z,-3.60
2018-02-27T15:13:30.133Z,-3.50
2018-02-27T15:15:57.676Z,-3.60
2018-02-27T15:18:27.792Z,-3.50
2018-02-27T15:20:55.334Z,-3.50
2018-02-27T15:23:22.937Z,-3.50
2018-02-27T15:25:51.373Z,-3.60
2018-02-27T15:28:18.921Z,-3.60
2018-02-27T15:30:46.496Z,-3.60
2018-02-27T15:33:14.052Z,-3.60
2018-02-27T15:35:41.661Z,-3.60
2018-02-27T15:38:09.976Z,-3.60
2018-02-27T15:40:37.765Z,-3.60
2018-02-27T15:43:05.355Z,-3.60
2018-02-27T15:45:32.900Z,-3.60
2018-02-27T15:48:00.494Z,-3.60
2018-02-27T15:50:28.054Z,-3.60
2018-02-27T15:52:55.652Z,-3.70
2018-02-27T15:55:23.206Z,-3.70
2018-02-27T15:57:50.832Z,-3.70
2018-02-27T16:00:18.503Z,-3.70
2018-02-27T16:02:46.079Z,-3.70
2018-02-27T16:05:13.693Z,-3.80
2018-02-27T16:07:41.256Z,-3.80
2018-02-27T16:10:09.887Z,-3.80
2018-02-27T16:12:37.610Z,-3.80
2018-02-27T16:15:05.965Z,-3.90
2018-02-27T16:17:33.518Z,-3.90
2018-02-27T16:20:01.111Z,-3.90
2018-02-27T16:22:28.659Z,-3.90
2018-02-27T16:24:57.036Z,-3.90
2018-02-27T16:27:24.597Z,-4.00
2018-02-27T16:29:52.946Z,-4.00
2018-02-27T16:32:20.526Z,-4.00
2018-02-27T16:34:48.812Z,-4.00
2018-02-27T16:37:17.177Z,-4.10
2018-02-27T16:39:44.921Z,-4.10
2018-02-27T16:42:12.512Z,-4.10
2018-02-27T16:44:40.070Z,-4.10
2018-02-27T16:47:08.460Z,-4.20
2018-02-27T16:49:36.151Z,-4.20
2018-02-27T16:52:03.699Z,-4.20
2018-02-27T16:54:31.292Z,-4.30
2018-02-27T16:56:58.844Z,-4.30
2018-02-27T16:59:26.445Z,-4.30
2018-02-27T17:01:54.029Z,-4.40
2018-02-27T17:04:21.627Z,-4.40
2018-02-27T17:06:49.166Z,-4.40
2018-02-27T17:09:16.714Z,-4.50
2018-02-27T17:11:44.297Z,-4.50
2018-02-27T17:14:12.025Z,-4.50
2018-02-27T17:16:39.694Z,-4.50
2018-02-27T17:19:07.259Z,-4.60
2018-02-27T17:21:34.870Z,-4.60
2018-02-27T17:24:02.453Z,-4.60
2018-02-27T17:26:30.835Z,-4.60
2018-02-27T17:28:58.452Z,-4.60
2018-02-27T17:31:26.084Z,-4.70
2018-02-27T17:33:53.629Z,-4.70
2018-02-27T17:36:21.195Z,-4.70
2018-02-27T17:38:48.801Z,-4.70
2018-02-27T17:41:16.638Z,-4.70
2018-02-27T17:43:44.245Z,-5.00
2018-02-27T17:46:13.311Z,-4.80
2018-02-27T17:48:40.968Z,-4.80
2018-02-27T17:51:08.548Z,-4.80
2018-02-27T17:53:36.143Z,-4.80
2018-02-27T17:56:03.690Z,-4.70
2018-02-27T17:58:32.345Z,-4.80
2018-02-27T18:00:59.926Z,-4.80
2018-02-27T18:03:28.263Z,-4.80
2018-02-27T18:05:55.854Z,-4.80
2018-02-27T18:08:23.485Z,-4.80
2018-02-27T18:10:51.102Z,-4.90
2018-02-27T18:13:18.678Z,-5.20
2018-02-27T18:15:46.489Z,-4.90
2018-02-27T18:18:14.062Z,-4.90
2018-02-27T18:20:41.669Z,-4.90
2018-02-27T18:23:09.250Z,-5.00
2018-02-27T18:25:36.809Z,-5.00
2018-02-27T18:28:04.994Z,-4.90
2018-02-27T18:30:32.559Z,-4.90
2018-02-27T18:33:00.340Z,-5.30
2018-02-27T18:35:27.879Z,-4.90
2018-02-27T18:37:55.489Z,-4.90
2018-02-27T18:40:23.806Z,-5.30
2018-02-27T18:42:51.455Z,-5.00
2018-02-27T18:45:19.048Z,-4.90
2018-02-27T18:47:46.629Z,-5.30
2018-02-27T18:50:15.719Z,-5.00
2018-02-27T18:52:43.503Z,-4.90
2018-02-27T18:55:11.118Z,-4.90
2018-02-27T18:57:38.790Z,-4.90
2018-02-27T19:00:06.752Z,-4.90
2018-02-27T19:02:34.375Z,-4.80
2018-02-27T19:05:01.997Z,-4.90
2018-02-27T19:07:31.175Z,-4.90
2018-02-27T19:09:59.446Z,-5.20
2018-02-27T19:12:27.054Z,-4.90
2018-02-27T19:14:55.390Z,-5.00
2018-02-27T19:17:22.978Z,-5.00
2018-02-27T19:19:51.318Z,-5.00
2018-02-27T19:22:18.983Z,-5.00
2018-02-27T19:24:46.566Z,-5.00
2018-02-27T19:27:14.169Z,-5.00
2018-02-27T19:29:41.944Z,-4.90
2018-02-27T19:32:09.533Z,-5.00
2018-02-27T19:34:37.092Z,-5.00
2018-02-27T19:37:04.647Z,-5.30
2018-02-27T19:39:32.502Z,-5.00
2018-02-27T19:42:00.070Z,-5.00
2018-02-27T19:44:27.870Z,-5.00
2018-02-27T19:46:56.191Z,-5.10
2018-02-27T19:49:23.793Z,-5.10
2018-02-27T19:51:52.363Z,-5.30
2018-02-27T19:54:20.113Z,-5.10
2018-02-27T19:56:47.674Z,-5.00
2018-02-27T19:59:15.456Z,-5.00
2018-02-27T20:01:43.243Z,-5.00
2018-02-27T20:04:10.834Z,-5.20
2018-02-27T20:06:38.597Z,-4.80
2018-02-27T20:09:06.380Z,-4.90
2018-02-27T20:11:33.999Z,-5.00
2018-02-27T20:14:02.326Z,-5.10
2018-02-27T20:16:29.918Z,-5.10
2018-02-27T20:18:57.508Z,-5.10
2018-02-27T20:21:25.056Z,-5.10
2018-02-27T20:23:59.081Z,-5.40
2018-02-27T20:26:27.390Z,-5.00
2018-02-27T20:29:00.603Z,-5.50
2018-02-27T20:31:28.320Z,-5.00
2018-02-27T20:33:55.920Z,-5.40
2018-02-27T20:36:23.478Z,-5.00
2018-02-27T20:38:57.031Z,-4.90
2018-02-27T20:41:24.629Z,-5.30
2018-02-27T20:43:52.178Z,-4.90
2018-02-27T20:46:19.806Z,-4.90
2018-02-27T20:48:47.361Z,-4.80
2018-02-27T20:51:14.998Z,-5.00
2018-02-27T20:53:42.561Z,-5.20
2018-02-27T20:56:10.154Z,-4.80
2018-02-27T20:58:37.757Z,-4.80
2018-02-27T21:01:05.313Z,-5.10
2018-02-27T21:03:32.914Z,-4.70
2018-02-27T21:06:00.480Z,-4.80
2018-02-27T21:08:28.392Z,-4.80
2018-02-27T21:10:55.934Z,-4.90
2018-02-27T21:13:23.548Z,-4.90
2018-02-27T21:15:51.874Z,-5.20
2018-02-27T21:18:19.428Z,-5.40
2018-02-27T21:20:47.028Z,-4.90
2018-02-27T21:23:14.605Z,-4.90
2018-02-27T21:25:42.180Z,-5.00
2018-02-27T21:28:10.102Z,-5.00
2018-02-27T21:30:37.730Z,-4.80
2018-02-27T21:33:05.285Z,-4.90
2018-02-27T21:35:33.718Z,-4.80
2018-02-27T21:38:01.320Z,-4.90
2018-02-27T21:40:28.869Z,-4.90
2018-02-27T21:42:57.226Z,-5.20
2018-02-27T21:45:24.782Z,-5.30
2018-02-27T21:47:52.519Z,-4.90
2018-02-27T21:50:20.068Z,-5.00
2018-02-27T21:52:47.664Z,-5.20
2018-02-27T21:55:15.196Z,-4.80
2018-02-27T21:57:42.874Z,-5.00
2018-02-27T22:00:10.449Z,-5.00
2018-02-27T22:02:39.142Z,-5.30
2018-02-27T22:05:06.689Z,-5.10
2018-02-27T22:07:35.011Z,-5.20
2018-02-27T22:10:02.614Z,-5.20
2018-02-27T22:12:30.175Z,-5.20
2018-02-27T22:14:57.762Z,-5.20
2018-02-27T22:17:26.075Z,-5.20
2018-02-27T22:19:53.746Z,-5.30
2018-02-27T22:22:21.284Z,-5.30
2018-02-27T22:24:48.869Z,-5.30
2018-02-27T22:27:16.423Z,-5.40
2018-02-27T22:29:44.105Z,-5.40
2018-02-27T22:32:11.653Z,-5.40
2018-02-27T22:34:39.323Z,-5.30
2018-02-27T22:37:07.193Z,-5.40
2018-02-27T22:39:34.941Z,-5.80
2018-02-27T22:42:02.906Z,-5.60
2018-02-27T22:44:30.594Z,-5.70
2018-02-27T22:46:58.183Z,-5.70
2018-02-27T22:49:25.731Z,-6.00
2018-02-27T22:51:53.320Z,-5.70
2018-02-27T22:54:21.624Z,-5.90
2018-02-27T22:56:49.220Z,-6.40
2018-02-27T22:59:16.770Z,-5.90
2018-02-27T23:01:44.330Z,-6.00
2018-02-27T23:04:11.931Z,-5.80
2018-02-27T23:06:39.483Z,-5.90
2018-02-27T23:09:07.848Z,-6.40
2018-02-27T23:11:35.410Z,-6.00
2018-02-27T23:14:03.041Z,-5.90
2018-02-27T23:16:30.594Z,-6.00
2018-02-27T23:18:58.182Z,-6.10
2018-02-27T23:21:25.721Z,-6.00
2018-02-27T23:23:56.241Z,-6.20
2018-02-27T23:26:27.473Z,-6.10
2018-02-27T23:28:56.950Z,-6.20
2018-02-27T23:31:25.568Z,-6.20
2018-02-27T23:33:55.657Z,-6.20
2018-02-27T23:36:23.254Z,-6.30
2018-02-27T23:38:50.846Z,-6.30
2018-02-27T23:41:19.198Z,-6.30
2018-02-27T23:43:46.751Z,-6.30
2018-02-27T23:46:14.355Z,-6.40
2018-02-27T23:48:42.690Z,-6.30
2018-02-27T23:51:10.301Z,-6.50
2018-02-27T23:53:38.665Z,-6.40
2018-02-27T23:56:06.222Z,-6.30
2018-02-27T23:58:33.828Z,-6.40
